Fourchu: Past 24 Hour Conditions

 

St.Paul Island

09:00 PM ADT 28 July 2014
This table is a summary of hourly weather conditions for the past 24 hours.
Date / Time
(ADT)
Wind(knots) Conditions Visibility(km) Pressure(kPa) Air tempC) Relative humidity(%) Dew pointC) Humidex
28 July 2014
21:00 SE 20 gust 26 N/A N/A 101.2 19 99 19 *
20:00 SE 21 gust 26 N/A N/A 101.2 19 98 18 *
19:00 SE 25 N/A N/A 101.2 19 98 19 *
18:00 SSE 20 gust 26 N/A N/A 101.3 19 98 18 *
17:00 SSE 18 gust 25 N/A N/A 101.3 19 97 19 *
16:00 SSE 17 gust 25 N/A N/A 101.3 20 96 19 *
15:00 SSE 20 gust 29 N/A N/A 101.2 20 96 19 *
14:00 SSE 22 gust 28 N/A N/A 101.3 20 96 19 *
13:00 SSE 19 gust 25 N/A N/A 101.4 19 97 18 *
12:00 SSE 22 N/A N/A 101.3 19 98 19 *
11:00 SSE 19 gust 26 N/A N/A 101.3 19 99 18 *
10:00 SSE 17 N/A N/A 101.3 19 98 18 *
9:00 SSE 16 N/A N/A 101.4 19 97 18 *
8:00 SSE 18 N/A N/A 101.4 18 97 18 *
7:00 SSE 17 gust 23 N/A N/A 101.4 18 96 18 *
6:00 SSE 23 N/A N/A 101.3 18 96 17 *
5:00 S 15 gust 24 N/A N/A 101.4 18 95 17 *
4:00 SSE 21 N/A N/A 101.4 18 96 17 *
3:00 S 26 N/A N/A 101.3 18 93 17 *
2:00 SSE 21 gust 26 N/A N/A 101.4 19 91 17 *
1:00 S 22 N/A N/A 101.4 19 90 17 *
0:00 S 24 N/A N/A 101.4 19 88 17 *
27 July 2014
23:00 S 26 N/A N/A 101.4 19 88 17 *
22:00 SSE 19 gust 25 N/A N/A 101.4 20 80 17 25
21:00 SSE 20 gust 27 N/A N/A 101.4 20 83 17 25
 
Map of Atlantic - Newfoundland marine weather areas Southwestern Grand Banks - 44138 Banquereau - 44139 Tail of the Bank - 44140 Nickerson Bank - 44251 Northeast Burgeo Bank - 44255 Blanc-Sablon Airport Cap Whittle Chevery Natashquan Airport Heath Point Miscou Island Grand Étang Ingonish Beach North Mountain St.Paul Island J.A. Douglas McCurdy Sydney Airport Charlottetown Airport East Point North Cape Argentia Bonavista Burgeo Cape Race Corner Brook Daniel's Harbour Englee Ferolle Point La Scie Port aux Basques Rocky Harbour Sagona Island St. Anthony Airport St. John's Int'l Airport St. Lawrence Stephenville Airport Twillingate Winterland Wreckhouse Cartwright Airport Mary's Harbour Grates Cove Pool's Island Marticot Island Long Pond Îles de la Madeleine Airport
Legend: buoyBuoy land stationLand Station